Time;durP1;ratioP1;P1;durP2;ratioP2;P2;SDS_P1;SDS_P2;PMS_P1;PMS_P2;Temp;Humidity;BMP_temperature;BMP_pressure;BME280_temperature;BME280_humidity;BME280_pressure;Samples;Min_cycle;Max_cycle;Signal;HPM_P1;HPM_P2
2022/08/18 00:01:00;;;;;;;16.92;9.73;;;;;;;21.35;73.47;101449.94;6158967;23;20008;-47
2022/08/18 00:03:29;;;;;;;16.98;9.10;;;;;;;21.36;73.45;101451.69;6134258;23;20051;-49
2022/08/18 00:05:57;;;;;;;13.60;8.93;;;;;;;21.37;73.74;101449.00;6168777;23;20008;-48
2022/08/18 00:08:24;;;;;;;15.77;8.55;;;;;;;21.37;73.52;101445.47;6105953;23;20310;-46
2022/08/18 00:10:49;;;;;;;15.48;9.02;;;;;;;21.35;73.78;101436.69;6170629;23;20142;-50
2022/08/18 00:13:14;;;;;;;15.00;9.13;;;;;;;21.36;73.71;101444.59;6166807;23;20036;-48
2022/08/18 00:15:40;;;;;;;16.67;8.93;;;;;;;21.35;73.88;101456.13;6168362;23;20889;-48
2022/08/18 00:18:05;;;;;;;16.48;8.70;;;;;;;21.44;73.87;101455.94;6158907;23;20012;-47
2022/08/18 00:20:31;;;;;;;14.40;8.68;;;;;;;21.43;73.92;101448.00;6113845;23;20244;-48
2022/08/18 00:22:56;;;;;;;14.68;9.02;;;;;;;21.47;73.85;101448.81;6170726;23;20321;-47
2022/08/18 00:25:23;;;;;;;15.57;8.73;;;;;;;21.49;73.76;101437.25;6173639;23;20174;-48
2022/08/18 00:27:48;;;;;;;14.68;8.70;;;;;;;21.48;74.21;101431.97;6137601;23;20091;-48
2022/08/18 00:30:17;;;;;;;12.32;8.40;;;;;;;21.44;73.76;101428.53;6168731;23;20804;-49
2022/08/18 00:32:48;;;;;;;12.82;8.48;;;;;;;21.43;73.96;101410.88;6166506;23;20000;-49
2022/08/18 00:35:19;;;;;;;13.18;8.82;;;;;;;21.44;73.81;101412.63;6166169;23;20016;-48
2022/08/18 00:37:48;;;;;;;11.88;7.88;;;;;;;21.39;73.87;101407.41;6140238;23;20014;-47
2022/08/18 00:40:17;;;;;;;13.40;8.52;;;;;;;21.32;73.78;101416.41;6152065;23;20012;-48
2022/08/18 00:42:47;;;;;;;13.25;8.30;;;;;;;21.29;73.96;101421.78;6166455;23;20008;-49
2022/08/18 00:45:17;;;;;;;13.18;7.57;;;;;;;21.29;73.56;101419.13;6167816;23;20008;-48
2022/08/18 00:47:43;;;;;;;12.70;7.65;;;;;;;21.24;73.54;101431.63;6161247;23;20584;-47
2022/08/18 00:50:20;;;;;;;11.80;7.60;;;;;;;21.19;73.78;101424.66;6159316;23;20051;-48
2022/08/18 00:52:52;;;;;;;12.73;7.68;;;;;;;21.18;73.58;101428.22;6166971;23;20012;-49
2022/08/18 00:55:19;;;;;;;14.60;7.65;;;;;;;21.09;73.54;101420.44;6141071;23;20515;-47
2022/08/18 00:57:49;;;;;;;11.98;7.82;;;;;;;21.00;73.99;101430.31;6138501;23;20348;-48
2022/08/18 01:00:17;;;;;;;12.98;7.82;;;;;;;20.94;74.11;101435.75;6164710;23;20044;-49
2022/08/18 01:02:50;;;;;;;14.70;8.43;;;;;;;20.88;74.22;101430.56;6162139;23;20385;-49
2022/08/18 01:05:43;;;;;;;13.73;7.85;;;;;;;20.79;74.49;101438.72;6132741;23;20520;-48
2022/08/18 01:08:15;;;;;;;15.93;8.35;;;;;;;20.74;74.97;101437.06;6135878;23;20040;-46
2022/08/18 01:10:44;;;;;;;11.45;7.78;;;;;;;20.74;75.18;101437.06;6136978;23;20020;-48
2022/08/18 01:13:09;;;;;;;14.13;8.00;;;;;;;20.77;75.22;101432.56;6142813;23;20119;-46
2022/08/18 01:15:37;;;;;;;14.18;8.20;;;;;;;20.76;75.30;101432.59;6135409;23;20047;-48
2022/08/18 01:24:05;;;;;;;12.45;7.72;;;;;;;20.76;75.57;101428.16;6165149;23;20020;-47
2022/08/18 01:26:36;;;;;;;13.00;7.57;;;;;;;20.83;75.26;101429.81;6167420;23;20436;-47
2022/08/18 01:29:10;;;;;;;12.93;7.32;;;;;;;20.85;75.14;101435.97;6159241;23;20970;-49
2022/08/18 01:31:46;;;;;;;11.93;7.20;;;;;;;20.84;75.26;101425.38;6164018;23;20005;-49
2022/08/18 01:34:11;;;;;;;11.35;7.20;;;;;;;20.75;75.31;101421.13;6146577;23;20051;-46
2022/08/18 01:36:39;;;;;;;14.77;7.60;;;;;;;20.60;75.48;101418.78;6165631;23;20687;-49
2022/08/18 01:39:08;;;;;;;15.82;7.75;;;;;;;20.49;75.93;101416.31;6176521;23;20107;-46
2022/08/18 01:41:34;;;;;;;14.57;7.55;;;;;;;20.54;75.71;101421.56;6164678;23;20095;-49
2022/08/18 01:44:07;;;;;;;12.60;7.40;;;;;;;20.38;76.25;101420.06;6145357;23;20036;-49
2022/08/18 01:46:34;;;;;;;14.50;7.85;;;;;;;20.45;76.20;101419.94;6129186;23;20016;-48
2022/08/18 01:49:03;;;;;;;10.52;7.07;;;;;;;20.58;75.61;101439.13;6166852;23;20013;-48
2022/08/18 01:51:31;;;;;;;13.95;7.50;;;;;;;20.59;75.23;101439.09;6172210;23;20009;-47
2022/08/18 01:53:57;;;;;;;12.57;7.68;;;;;;;20.54;75.62;101440.97;6135321;23;20012;-48
2022/08/18 01:56:25;;;;;;;14.18;7.75;;;;;;;20.41;76.21;101442.09;6127254;23;20114;-48
2022/08/18 01:58:51;;;;;;;13.38;7.45;;;;;;;20.44;76.40;101449.09;6160806;23;20024;-50
2022/08/18 02:01:16;;;;;;;12.07;7.30;;;;;;;20.47;76.32;101443.75;6161513;23;20031;-48
2022/08/18 02:03:47;;;;;;;12.93;7.43;;;;;;;20.53;75.74;101451.59;6161783;23;20012;-50
2022/08/18 02:06:17;;;;;;;12.13;6.95;;;;;;;20.54;75.54;101453.34;6129931;23;20092;-49
2022/08/18 02:08:44;;;;;;;11.05;6.93;;;;;;;20.56;75.70;101449.75;6175123;23;20016;-48
2022/08/18 02:11:13;;;;;;;11.00;6.72;;;;;;;20.57;75.28;101451.50;6137774;23;20048;-46
2022/08/18 02:13:39;;;;;;;12.60;7.30;;;;;;;20.56;75.84;101443.56;6142055;23;20083;-47
2022/08/18 02:16:07;;;;;;;12.65;6.78;;;;;;;20.53;75.65;101444.53;6154095;23;20672;-47
2022/08/18 02:18:35;;;;;;;14.02;6.95;;;;;;;20.42;75.59;101441.19;6171886;23;20421;-48
2022/08/18 02:21:13;;;;;;;15.02;7.13;;;;;;;20.40;75.83;101453.59;6146408;23;20315;-48
2022/08/18 02:23:43;;;;;;;11.43;6.72;;;;;;;20.38;75.95;101446.56;6166209;23;20091;-47
2022/08/18 02:26:11;;;;;;;11.20;6.50;;;;;;;20.36;75.72;101451.03;6166947;23;21189;-52
2022/08/18 02:28:37;;;;;;;13.95;6.97;;;;;;;20.36;75.71;101441.31;6170230;23;20593;-49
2022/08/18 02:31:08;;;;;;;12.70;7.30;;;;;;;20.27;76.00;101447.59;6170970;23;20096;-51
2022/08/18 02:33:33;;;;;;;10.38;6.70;;;;;;;20.25;76.14;101449.38;6136548;23;20008;-48
2022/08/18 02:36:02;;;;;;;12.27;7.20;;;;;;;20.29;75.89;101454.66;6164045;23;20087;-47
2022/08/18 02:38:29;;;;;;;13.05;7.15;;;;;;;20.29;75.87;101447.56;6156063;23;20508;-48
2022/08/18 02:40:59;;;;;;;12.60;7.00;;;;;;;20.35;75.60;101452.78;6156213;23;20409;-48
2022/08/18 02:43:26;;;;;;;11.68;6.88;;;;;;;20.35;75.70;101447.50;6138318;23;20352;-47
2022/08/18 02:45:51;;;;;;;12.75;7.35;;;;;;;20.34;75.93;101459.00;6165968;23;20016;-50
2022/08/18 02:48:24;;;;;;;13.20;7.00;;;;;;;20.28;75.74;101453.75;6162269;23;20013;-48
2022/08/18 02:50:49;;;;;;;10.45;6.75;;;;;;;20.25;75.86;101453.81;6175670;23;20008;-48
2022/08/18 02:53:20;;;;;;;11.77;6.68;;;;;;;20.27;75.71;101460.84;6170706;23;20551;-46
2022/08/18 02:55:45;;;;;;;10.80;6.88;;;;;;;20.27;75.82;101459.97;6165442;23;20020;-47
2022/08/18 02:58:12;;;;;;;13.63;6.95;;;;;;;20.30;75.63;101462.56;6163436;23;20039;-52
2022/08/18 03:00:37;;;;;;;11.27;7.15;;;;;;;20.31;75.17;101468.75;6166429;23;20071;-48
2022/08/18 03:03:03;;;;;;;11.07;7.07;;;;;;;20.32;75.26;101467.81;6171921;23;20083;-50
2022/08/18 03:05:29;;;;;;;10.35;6.75;;;;;;;20.32;75.27;101468.72;6171696;23;20004;-47
2022/08/18 03:07:54;;;;;;;12.50;7.10;;;;;;;20.33;75.36;101478.41;6166618;23;20946;-50
2022/08/18 03:10:20;;;;;;;11.73;7.00;;;;;;;20.36;75.81;101474.88;6164325;23;20218;-48
2022/08/18 03:12:45;;;;;;;12.60;7.00;;;;;;;20.40;75.79;101484.50;6164769;23;20505;-48
2022/08/18 03:15:11;;;;;;;11.43;7.35;;;;;;;20.38;76.26;101481.84;6164405;23;20468;-49
2022/08/18 03:17:37;;;;;;;12.07;7.47;;;;;;;20.41;76.38;101478.28;6164129;23;20000;-47
2022/08/18 03:20:08;;;;;;;11.05;7.30;;;;;;;20.45;76.38;101486.16;6162894;23;20160;-48
2022/08/18 03:22:34;;;;;;;11.85;7.18;;;;;;;20.43;76.02;101473.84;6170762;23;20558;-47
2022/08/18 03:25:00;;;;;;;12.18;7.10;;;;;;;20.45;76.07;101477.34;6164704;23;20019;-48
2022/08/18 03:27:25;;;;;;;12.68;7.07;;;;;;;20.42;75.89;101478.28;6159984;23;20016;-47
2022/08/18 03:29:51;;;;;;;13.07;7.30;;;;;;;20.39;76.20;101482.72;6143315;23;20020;-47
2022/08/18 03:32:17;;;;;;;11.68;7.30;;;;;;;20.40;76.02;101476.53;6154726;23;20005;-48
2022/08/18 03:34:42;;;;;;;12.52;7.28;;;;;;;20.43;76.20;101474.69;6173730;23;20015;-49
2022/08/18 03:37:08;;;;;;;10.68;7.07;;;;;;;20.45;75.92;101472.91;6140649;23;20051;-49
2022/08/18 03:39:34;;;;;;;11.55;7.10;;;;;;;20.45;75.90;101466.75;6159843;23;20020;-50
2022/08/18 03:42:06;;;;;;;10.25;7.03;;;;;;;20.47;75.67;101463.19;6161175;23;20016;-49
2022/08/18 03:44:37;;;;;;;11.32;7.40;;;;;;;20.48;75.82;101475.53;6164238;23;20025;-47
2022/08/18 03:47:06;;;;;;;10.10;7.18;;;;;;;20.48;75.94;101477.28;6136786;23;20107;-48
2022/08/18 03:49:32;;;;;;;13.00;7.00;;;;;;;20.50;75.91;101486.06;6165028;23;20015;-49
2022/08/18 03:51:59;;;;;;;14.02;7.07;;;;;;;20.51;75.77;101479.88;6171486;23;20008;-49
2022/08/18 03:54:25;;;;;;;11.95;6.95;;;;;;;20.57;76.06;101474.47;6168955;23;20932;-49
2022/08/18 03:56:53;;;;;;;14.27;7.10;;;;;;;20.61;75.97;101476.19;6162188;23;20180;-47
2022/08/18 03:59:22;;;;;;;10.30;7.15;;;;;;;20.61;75.81;101473.53;6172720;23;20016;-49
2022/08/18 04:01:50;;;;;;;11.80;6.82;;;;;;;20.55;75.98;101471.84;6163031;23;20511;-49
2022/08/18 04:04:18;;;;;;;11.45;7.00;;;;;;;20.61;76.26;101471.72;6156642;23;20021;-48
2022/08/18 04:06:50;;;;;;;13.45;7.80;;;;;;;20.63;76.31;101466.41;6161524;23;20013;-49
2022/08/18 04:09:16;;;;;;;10.30;7.50;;;;;;;20.61;76.42;101469.06;6159755;23;20022;-49
2022/08/18 04:11:43;;;;;;;11.88;7.20;;;;;;;20.70;76.60;101465.38;6170291;23;20011;-49
2022/08/18 04:14:14;;;;;;;12.02;7.20;;;;;;;20.78;76.35;101474.06;6152724;23;20420;-51
2022/08/18 04:16:41;;;;;;;11.38;6.97;;;;;;;20.84;76.31;101467.78;6167042;23;20118;-49
2022/08/18 04:19:07;;;;;;;11.65;7.07;;;;;;;20.86;76.06;101463.34;6162751;23;20419;-50
2022/08/18 04:21:36;;;;;;;10.45;7.13;;;;;;;20.86;76.45;101466.00;6138447;23;20017;-47
2022/08/18 04:24:04;;;;;;;11.05;7.68;;;;;;;20.78;76.54;101463.47;6158224;23;20304;-46
2022/08/18 04:26:40;;;;;;;11.25;7.60;;;;;;;20.75;76.51;101462.63;6167872;23;20023;-47
2022/08/18 04:29:08;;;;;;;11.00;7.35;;;;;;;20.79;76.70;101465.22;6162402;23;20087;-47
2022/08/18 04:31:35;;;;;;;11.20;7.43;;;;;;;20.88;76.11;101467.69;6170346;23;20004;-49
2022/08/18 04:34:03;;;;;;;10.02;7.18;;;;;;;20.95;75.99;101474.63;6154484;23;20036;-46
2022/08/18 04:36:37;;;;;;;12.75;7.20;;;;;;;21.04;75.77;101465.63;6165836;23;20009;-49
2022/08/18 04:39:10;;;;;;;12.97;7.17;;;;;;;21.03;75.82;101462.09;6155890;23;20051;-47
2022/08/18 04:41:37;;;;;;;11.93;7.35;;;;;;;20.98;75.90;101468.41;6163286;22;20016;-49
2022/08/18 04:44:06;;;;;;;12.48;7.45;;;;;;;20.89;75.71;101461.47;6161987;23;20013;-45
2022/08/18 04:46:42;;;;;;;10.88;7.15;;;;;;;20.86;75.88;101460.69;6161614;23;20416;-48
2022/08/18 04:49:09;;;;;;;13.13;7.10;;;;;;;20.82;75.49;101454.56;6174397;23;20009;-50
2022/08/18 04:51:35;;;;;;;10.43;7.03;;;;;;;20.75;75.72;101457.34;6139158;23;20096;-47
2022/08/18 04:54:02;;;;;;;11.43;7.68;;;;;;;20.71;75.49;101447.72;6161301;23;20050;-50
2022/08/18 04:56:32;;;;;;;12.35;7.70;;;;;;;20.62;75.70;101454.06;6147356;23;20138;-46
2022/08/18 04:59:03;;;;;;;13.20;8.50;;;;;;;20.43;76.35;101457.97;6168641;23;20020;-49
2022/08/18 05:01:34;;;;;;;12.52;7.80;;;;;;;20.46;76.60;101458.78;6166773;23;20002;-47
2022/08/18 05:04:01;;;;;;;12.68;8.45;;;;;;;20.54;76.37;101456.88;6169492;23;20004;-51
2022/08/18 05:06:28;;;;;;;14.55;8.55;;;;;;;20.53;76.58;101457.75;6160740;23;20574;-49
2022/08/18 05:08:59;;;;;;;15.13;8.60;;;;;;;20.58;76.39;101463.84;6169112;23;20000;-47
2022/08/18 05:11:27;;;;;;;12.70;8.45;;;;;;;20.63;76.61;101463.75;6170370;23;20020;-47
2022/08/18 05:13:56;;;;;;;14.65;9.48;;;;;;;20.53;76.67;101455.13;6138865;23;20051;-47
2022/08/18 05:16:23;;;;;;;16.75;10.10;;;;;;;20.54;76.60;101451.56;6152380;23;20575;-47
2022/08/18 05:18:52;;;;;;;15.80;10.05;;;;;;;20.61;76.69;101454.97;6168407;23;20095;-47
2022/08/18 05:21:21;;;;;;;14.43;9.55;;;;;;;20.64;76.50;101468.16;6169866;23;20036;-46
2022/08/18 05:23:48;;;;;;;14.82;9.05;;;;;;;20.70;76.42;101461.88;6132864;23;20078;-47
2022/08/18 05:26:16;;;;;;;16.55;10.27;;;;;;;20.74;76.60;101467.06;6164311;23;20005;-49
2022/08/18 05:28:43;;;;;;;15.23;9.57;;;;;;;20.81;76.63;101465.19;6165321;23;20515;-50
2022/08/18 05:31:15;;;;;;;15.25;9.88;;;;;;;20.85;76.56;101474.84;6174140;23;20005;-50
2022/08/18 05:33:40;;;;;;;16.70;10.00;;;;;;;20.86;76.82;101472.13;6159602;23;20509;-47
2022/08/18 05:36:21;;;;;;;16.95;9.80;;;;;;;20.90;76.68;101478.25;6160435;23;20024;-46
2022/08/18 05:39:02;;;;;;;16.50;9.77;;;;;;;20.97;76.81;101477.25;6137051;23;20016;-48
2022/08/18 05:41:36;;;;;;;17.48;9.45;;;;;;;21.04;76.92;101484.19;6164444;23;20016;-47
2022/08/18 05:44:02;;;;;;;17.00;10.60;;;;;;;21.09;76.82;101479.66;6172769;23;20055;-47
2022/08/18 05:46:49;;;;;;;15.15;9.63;;;;;;;21.17;76.65;101472.41;6127717;23;20104;-49
2022/08/18 05:49:15;;;;;;;13.18;9.25;;;;;;;21.23;76.30;101474.94;6173559;23;20629;-46
2022/08/18 05:51:47;;;;;;;12.75;8.55;;;;;;;21.31;76.13;101474.78;6169978;23;20004;-45
2022/08/18 05:57:10;;;;;;;10.75;7.93;;;;;;;21.63;75.06;101467.00;6165197;23;20047;-47
2022/08/18 05:59:39;;;;;;;11.57;8.18;;;;;;;21.70;75.04;101463.31;6166257;23;20012;-47
2022/08/18 06:02:14;;;;;;;10.25;7.38;;;;;;;21.72;74.84;101460.59;6161557;23;20005;-46
2022/08/18 06:04:52;;;;;;;12.93;8.20;;;;;;;21.69;75.31;101458.91;6158616;23;20044;-49
2022/08/18 06:07:34;;;;;;;10.65;7.75;;;;;;;21.78;75.32;101458.69;6163770;23;20112;-47
2022/08/18 06:10:07;;;;;;;11.25;8.02;;;;;;;21.83;75.16;101466.56;6168144;23;20552;-48
2022/08/18 06:12:40;;;;;;;10.30;7.55;;;;;;;21.97;74.70;101469.75;6144793;23;21015;-45
2022/08/18 06:15:36;;;;;;;10.05;7.15;;;;;;;22.12;73.92;101468.53;6165815;23;20000;-47
2022/08/18 06:18:26;;;;;;;9.73;6.40;;;;;;;22.31;73.99;101468.94;6163789;23;20020;-48
2022/08/18 06:21:22;;;;;;;9.30;6.80;;;;;;;22.44;73.44;101462.41;6164008;23;20029;-48
2022/08/18 06:24:11;;;;;;;10.50;6.72;;;;;;;22.88;73.24;101456.75;6126978;23;20942;-47
2022/08/18 06:27:03;;;;;;;9.27;6.40;;;;;;;23.63;69.57;101463.44;6149089;23;20116;-47
2022/08/18 06:29:38;;;;;;;11.30;6.00;;;;;;;24.55;66.78;101467.50;6172690;23;20816;-45
2022/08/18 06:32:04;;;;;;;8.93;6.45;;;;;;;25.64;60.91;101459.88;6155779;23;20001;-46
2022/08/18 06:34:49;;;;;;;9.52;6.85;;;;;;;26.84;57.63;101462.81;6126101;23;20016;-47
2022/08/18 06:37:29;;;;;;;8.38;6.22;;;;;;;27.69;54.29;101464.22;6172683;23;20035;-48
2022/08/18 06:39:56;;;;;;;9.27;6.05;;;;;;;28.58;53.99;101463.34;6171745;23;20103;-50
2022/08/18 06:42:29;;;;;;;8.07;6.07;;;;;;;29.26;49.52;101475.81;6130969;23;20123;-48
2022/08/18 06:45:11;;;;;;;8.07;5.97;;;;;;;29.22;50.83;101468.84;6167307;23;20031;-46
2022/08/18 06:48:02;;;;;;;7.55;5.85;;;;;;;29.71;50.65;101469.69;6148638;23;20036;-46
2022/08/18 06:50:45;;;;;;;7.53;5.45;;;;;;;29.38;49.85;101471.59;6150269;23;20885;-48
2022/08/18 06:53:11;;;;;;;10.63;5.57;;;;;;;28.00;53.67;101476.13;6141301;23;20031;-47
2022/08/18 06:55:46;;;;;;;7.45;4.75;;;;;;;27.35;54.66;101475.66;6160264;23;20948;-46
2022/08/18 06:58:12;;;;;;;6.68;4.68;;;;;;;26.29;56.18;101487.56;6142400;23;20027;-52
2022/08/18 07:00:42;;;;;;;8.38;4.85;;;;;;;26.17;59.01;101483.53;6170329;23;20017;-47
2022/08/18 07:03:18;;;;;;;7.28;4.53;;;;;;;26.63;58.49;101482.50;6169886;23;20013;-48
2022/08/18 07:06:10;;;;;;;5.18;3.80;;;;;;;27.73;53.86;101481.03;6169143;23;20040;-46
2022/08/18 07:08:47;;;;;;;7.85;3.50;;;;;;;28.67;52.66;101496.91;6162005;23;20008;-47
2022/08/18 07:11:25;;;;;;;6.55;3.60;;;;;;;28.33;52.40;101495.06;6136060;23;20100;-49
2022/08/18 07:13:57;;;;;;;5.43;3.38;;;;;;;28.64;51.70;101492.53;6158822;23;20013;-46
2022/08/18 07:16:34;;;;;;;4.93;3.13;;;;;;;29.99;47.51;101497.72;6146003;23;20004;-47
2022/08/18 07:19:08;;;;;;;5.35;3.15;;;;;;;30.82;47.64;101495.41;6108241;23;20306;-48
2022/08/18 07:21:36;;;;;;;5.80;2.67;;;;;;;31.40;43.36;101489.13;6169474;23;20059;-48
2022/08/18 07:24:46;;;;;;;4.10;2.60;;;;;;;31.86;43.73;101494.25;6162092;23;20464;-47
2022/08/18 07:27:35;;;;;;;2.58;1.80;;;;;;;32.71;40.08;101494.78;6166950;23;20528;-48
2022/08/18 07:30:18;;;;;;;4.85;2.00;;;;;;;32.42;41.40;101493.19;6145124;23;20084;-51
2022/08/18 07:33:03;;;;;;;2.55;1.77;;;;;;;31.74;43.04;101491.41;6144234;23;20076;-48
2022/08/18 07:35:48;;;;;;;3.47;1.80;;;;;;;31.13;44.65;101480.97;6168398;23;20091;-48
2022/08/18 07:38:35;;;;;;;4.13;1.90;;;;;;;30.60;44.88;101495.88;6152865;23;20016;-47
2022/08/18 07:41:12;;;;;;;4.50;2.10;;;;;;;31.04;45.49;101495.84;6142174;23;20079;-48
2022/08/18 07:43:52;;;;;;;4.72;2.10;;;;;;;31.84;42.72;101494.34;6166154;23;20532;-48
2022/08/18 07:46:37;;;;;;;3.58;1.77;;;;;;;32.49;42.25;101500.78;6155438;23;20738;-47
2022/08/18 07:49:05;;;;;;;3.88;2.13;;;;;;;32.85;39.05;101496.53;6150415;23;20472;-48
2022/08/18 07:51:42;;;;;;;4.68;2.10;;;;;;;30.36;44.13;101505.38;6166853;23;20028;-48
2022/08/18 07:54:35;;;;;;;3.78;2.05;;;;;;;30.06;47.19;101508.06;6156431;23;20079;-51
2022/08/18 07:57:01;;;;;;;;;;;;;;;30.02;46.60;101514.53;6140294;23;20070;-49
2022/08/18 07:59:52;;;;;;;4.32;2.40;;;;;;;30.22;46.77;101514.25;6166967;23;19911;-55
2022/08/18 08:02:24;;;;;;;2.53;1.98;;;;;;;30.38;44.69;101514.22;6153119;23;20083;-53
2022/08/18 08:05:06;;;;;;;3.60;2.35;;;;;;;30.16;44.06;101524.50;6129596;23;20467;-48
2022/08/18 08:07:50;;;;;;;3.95;2.42;;;;;;;29.63;46.64;101522.16;6163506;23;20298;-47
2022/08/18 08:10:50;;;;;;;4.07;2.40;;;;;;;29.13;46.54;101523.06;6165501;23;20016;-47
2022/08/18 08:13:34;;;;;;;3.90;2.80;;;;;;;28.87;49.34;101519.06;6169339;23;20091;-48
2022/08/18 08:16:18;;;;;;;4.72;2.70;;;;;;;28.79;50.32;101515.91;6160932;23;20012;-46
2022/08/18 08:18:56;;;;;;;3.58;2.50;;;;;;;28.38;51.76;101526.06;6165347;23;20620;-47
2022/08/18 08:21:25;;;;;;;4.38;2.30;;;;;;;28.17;52.78;101522.66;6139212;23;20025;-47
2022/08/18 08:24:03;;;;;;;3.35;2.15;;;;;;;27.84;52.35;101522.44;6157527;23;20024;-48
2022/08/18 08:26:44;;;;;;;5.65;2.20;;;;;;;27.77;53.43;101523.69;6169656;23;20016;-47
2022/08/18 08:29:23;;;;;;;5.50;2.30;;;;;;;27.61;53.77;101516.44;6165983;23;20068;-48
2022/08/18 08:32:14;;;;;;;4.65;2.50;;;;;;;27.26;57.15;101510.91;6138551;23;20746;-49
2022/08/18 08:34:56;;;;;;;3.85;2.50;;;;;;;26.94;58.34;101517.69;6171237;23;20012;-48
2022/08/18 08:37:43;;;;;;;4.20;2.22;;;;;;;26.65;59.89;101516.25;6175241;23;20017;-47
2022/08/18 08:40:19;;;;;;;3.65;2.25;;;;;;;26.52;60.28;101507.03;6155543;23;20016;-45
2022/08/18 08:42:59;;;;;;;3.95;2.22;;;;;;;26.45;59.45;101518.06;6147770;23;20334;-47
2022/08/18 08:45:31;;;;;;;7.25;2.20;;;;;;;26.36;60.40;101519.28;6164109;23;20016;-46
2022/08/18 08:48:04;;;;;;;6.35;2.30;;;;;;;26.25;60.65;101522.44;6170810;23;20004;-52
2022/08/18 08:50:35;;;;;;;3.53;2.30;;;;;;;26.10;61.02;101519.50;6163569;23;20016;-47
2022/08/18 08:53:07;;;;;;;5.85;2.45;;;;;;;26.11;59.57;101518.53;6166933;23;20032;-48
2022/08/18 08:55:40;;;;;;;7.18;2.75;;;;;;;25.86;61.29;101516.84;6165296;23;20009;-49
2022/08/18 08:58:25;;;;;;;3.47;2.00;;;;;;;26.08;59.04;101522.22;6149832;23;20838;-48
2022/08/18 09:00:55;;;;;;;3.10;2.20;;;;;;;26.29;59.77;101517.81;6166725;23;20353;-46
2022/08/18 11:13:57;;;;;;;4.95;2.10;;;;;;;28.61;45.20;101492.69;6134361;23;20032;-50
2022/08/18 11:16:58;;;;;;;4.07;2.50;;;;;;;29.89;43.95;101491.13;6155050;23;20035;-51
2022/08/18 11:19:25;;;;;;;4.00;2.10;;;;;;;28.97;42.37;101476.53;6048806;23;20385;-52
2022/08/18 11:21:52;;;;;;;7.15;2.22;;;;;;;29.29;42.86;101480.13;6141333;23;20023;-52
2022/08/18 11:24:27;;;;;;;5.95;2.28;;;;;;;29.61;43.46;101479.25;6154260;23;20020;-52
2022/08/18 11:27:04;;;;;;;3.75;2.05;;;;;;;28.94;42.32;101485.59;6169194;23;20016;-51
2022/08/18 11:29:31;;;;;;;3.55;2.10;;;;;;;29.38;40.67;101485.03;6137749;23;20008;-54
2022/08/18 11:32:18;;;;;;;3.70;2.25;;;;;;;29.68;41.86;101482.44;6163193;23;20039;-53
2022/08/18 11:35:10;;;;;;;2.90;2.22;;;;;;;29.86;41.63;101486.78;6171125;23;20728;-53
2022/08/18 11:38:12;;;;;;;3.40;2.25;;;;;;;29.91;40.64;101475.75;6143738;23;20020;-52
2022/08/18 11:40:51;;;;;;;6.07;2.40;;;;;;;29.46;38.76;101479.25;6136250;23;20017;-49
2022/08/18 11:43:30;;;;;;;3.10;2.10;;;;;;;29.29;41.01;101469.38;6163914;23;20016;-52
2022/08/18 11:46:03;;;;;;;4.38;2.40;;;;;;;29.36;42.13;101471.69;6144277;23;20444;-54
2022/08/18 11:48:34;;;;;;;5.95;2.80;;;;;;;29.34;41.36;101465.50;6160879;23;20294;-57
2022/08/18 11:51:08;;;;;;;4.78;2.67;;;;;;;29.65;41.63;101467.34;6164154;23;20049;-52
2022/08/18 11:53:42;;;;;;;4.05;2.50;;;;;;;29.51;42.17;101471.78;6169040;23;20015;-49
2022/08/18 11:56:10;;;;;;;5.28;2.53;;;;;;;29.50;41.98;101456.63;6147880;23;20017;-54
2022/08/18 11:58:55;;;;;;;3.83;2.60;;;;;;;29.79;41.98;101456.69;6142601;23;20020;-49
2022/08/18 12:01:47;;;;;;;5.13;2.80;;;;;;;29.66;42.88;101449.41;6136630;23;20012;-53
2022/08/18 12:04:13;;;;;;;5.78;2.53;;;;;;;29.59;41.37;101445.34;6162869;23;20383;-53
2022/08/18 12:06:49;;;;;;;5.63;2.65;;;;;;;29.79;42.33;101443.25;6135359;22;20124;-55
2022/08/18 12:09:19;;;;;;;3.10;2.30;;;;;;;30.10;41.34;101446.88;6159975;23;20004;-54
2022/08/18 12:12:14;;;;;;;4.65;2.35;;;;;;;29.95;39.73;101440.56;6169868;23;20013;-54
2022/08/18 12:14:50;;;;;;;5.30;3.05;;;;;;;28.50;44.38;101436.06;6113764;23;20094;-52
2022/08/18 12:17:17;;;;;;;5.47;2.60;;;;;;;29.29;42.41;101429.97;6163558;23;20016;-54
2022/08/18 12:19:42;;;;;;;4.43;2.55;;;;;;;29.74;41.12;101428.34;6155966;23;20048;-53
2022/08/18 12:22:17;;;;;;;4.40;2.72;;;;;;;30.01;39.67;101429.44;6160865;23;20032;-52
2022/08/18 12:24:44;;;;;;;4.68;3.00;;;;;;;30.12;40.70;101410.88;6165447;23;20586;-53
2022/08/18 12:27:11;;;;;;;4.50;3.30;;;;;;;29.65;41.74;101418.09;6166922;23;20016;-54
2022/08/18 12:29:36;;;;;;;9.38;3.60;;;;;;;28.67;43.30;101415.44;6136840;23;20476;-54
2022/08/18 12:32:04;;;;;;;4.20;3.13;;;;;;;29.33;42.03;101423.53;6156086;23;20043;-55
2022/08/18 12:34:29;;;;;;;5.93;3.22;;;;;;;29.03;42.88;101419.81;6164256;23;20485;-57
2022/08/18 12:36:57;;;;;;;6.18;3.22;;;;;;;28.98;43.81;101421.84;6161355;23;20016;-53
2022/08/18 12:39:23;;;;;;;8.00;3.53;;;;;;;28.35;44.80;101420.78;6157488;23;20040;-55
2022/08/18 12:41:49;;;;;;;5.80;3.90;;;;;;;28.92;44.47;101425.75;6135400;23;20019;-53
2022/08/18 12:44:15;;;;;;;8.05;4.07;;;;;;;29.48;44.47;101423.59;6147538;23;20355;-52
2022/08/18 12:46:41;;;;;;;7.80;4.43;;;;;;;29.72;43.96;101422.19;6163596;23;20091;-52
2022/08/18 12:49:15;;;;;;;8.63;4.60;;;;;;;29.77;44.39;101420.97;6162710;23;20020;-54
2022/08/18 12:51:43;;;;;;;8.57;4.68;;;;;;;29.31;44.42;101429.88;6167356;23;20843;-56
2022/08/18 12:54:09;;;;;;;7.10;4.43;;;;;;;29.56;44.13;101424.03;6154610;23;20020;-53
2022/08/18 12:56:38;;;;;;;14.07;5.38;;;;;;;29.44;42.89;101420.22;6165139;23;20005;-57
2022/08/18 12:59:07;;;;;;;7.78;4.47;;;;;;;29.57;44.43;101431.13;6134421;23;20024;-58
2022/08/18 13:01:34;;;;;;;8.05;4.60;;;;;;;29.46;43.31;101433.56;6161557;23;20016;-58
2022/08/18 13:04:19;;;;;;;8.15;4.47;;;;;;;29.37;42.73;101433.13;6140517;23;20032;-59
2022/08/18 13:06:50;;;;;;;6.78;4.22;;;;;;;28.94;44.40;101434.59;6145636;23;20439;-59
2022/08/18 13:09:15;;;;;;;6.07;4.30;;;;;;;29.16;43.33;101436.09;6164088;23;20012;-57
2022/08/18 13:11:41;;;;;;;7.18;4.40;;;;;;;29.38;44.30;101437.56;6161265;23;20009;-57
2022/08/18 13:14:07;;;;;;;6.05;4.10;;;;;;;29.00;42.72;101433.38;6118422;23;20029;-57
2022/08/18 13:16:38;;;;;;;4.88;3.67;;;;;;;29.19;43.25;101433.25;6132153;23;20020;-57
2022/08/18 13:19:04;;;;;;;6.53;4.00;;;;;;;29.04;41.22;101434.94;6163255;23;20023;-58
2022/08/18 13:21:43;;;;;;;6.43;4.00;;;;;;;29.44;41.70;101430.97;6161354;23;20014;-58
2022/08/18 13:24:26;;;;;;;6.88;4.10;;;;;;;29.48;42.95;101431.66;6130647;23;20120;-59
2022/08/18 13:26:55;;;;;;;6.47;3.70;;;;;;;29.53;42.36;101438.50;6168732;23;20877;-59
2022/08/18 13:29:28;;;;;;;7.32;3.45;;;;;;;29.58;44.35;101441.78;6137352;23;20080;-58
2022/08/18 13:31:58;;;;;;;11.77;3.53;;;;;;;29.63;42.95;101452.28;6134408;23;20017;-57
2022/08/18 13:34:27;;;;;;;6.68;3.50;;;;;;;28.99;45.33;101445.94;6131971;23;20480;-57
2022/08/18 13:36:53;;;;;;;7.10;3.78;;;;;;;28.39;47.44;101454.53;6157848;23;20071;-59
2022/08/18 13:39:31;;;;;;;9.95;3.67;;;;;;;28.53;46.49;101460.91;6163727;23;20083;-54
2022/08/18 13:41:57;;;;;;;8.35;3.67;;;;;;;28.77;46.15;101461.47;6142623;23;20004;-52
2022/08/18 13:44:24;;;;;;;7.57;3.67;;;;;;;28.35;46.38;101477.97;6156044;23;20047;-53
2022/08/18 13:46:50;;;;;;;8.55;3.70;;;;;;;28.39;47.01;101479.53;6162310;23;20317;-53
2022/08/18 13:49:21;;;;;;;5.47;3.70;;;;;;;28.43;47.09;101473.03;6161350;23;20298;-51
2022/08/18 13:51:48;;;;;;;5.13;3.28;;;;;;;28.31;47.78;101471.00;6163554;23;20009;-53
2022/08/18 13:54:29;;;;;;;9.18;3.50;;;;;;;28.19;48.10;101472.50;6126713;23;20016;-51
2022/08/18 13:56:55;;;;;;;8.68;3.70;;;;;;;28.34;49.13;101478.91;6167767;23;20009;-54
2022/08/18 13:59:22;;;;;;;7.97;3.70;;;;;;;28.37;50.00;101481.41;6165826;23;20031;-55
2022/08/18 14:01:50;;;;;;;7.90;3.40;;;;;;;28.09;49.94;101478.38;6166252;23;20012;-55
2022/08/18 14:04:40;;;;;;;4.80;3.10;;;;;;;28.42;49.68;101483.88;6152499;23;20017;-53